createdAt,value
2019-02-24T00:03:27.451Z,5.33
2019-02-24T00:06:10.522Z,5.53
2019-02-24T00:12:32.876Z,5.27
2019-02-24T00:15:29.186Z,5.63
2019-02-24T00:18:14.234Z,5.33
2019-02-24T00:24:29.425Z,5.13
2019-02-24T00:31:01.617Z,5.50
2019-02-24T00:33:44.892Z,5.53
2019-02-24T00:36:22.752Z,5.03
2019-02-24T00:39:03.036Z,4.40
2019-02-24T00:45:12.563Z,5.00
2019-02-24T00:51:26.747Z,5.07
2019-02-24T00:57:34.757Z,5.03
2019-02-24T01:00:12.673Z,5.00
2019-02-24T01:02:50.237Z,5.00
2019-02-24T01:05:27.844Z,5.13
2019-02-24T01:08:04.720Z,4.37
2019-02-24T01:10:43.855Z,5.27
2019-02-24T01:13:21.136Z,4.90
2019-02-24T01:16:07.024Z,5.10
2019-02-24T01:18:59.055Z,4.97
2019-02-24T01:21:37.581Z,5.10
2019-02-24T01:27:43.753Z,4.97
2019-02-24T01:34:03.459Z,5.00
2019-02-24T01:40:17.824Z,5.20
2019-02-24T01:43:03.560Z,5.00
2019-02-24T01:45:43.051Z,5.50
2019-02-24T01:48:26.258Z,4.77
2019-02-24T01:51:05.812Z,4.80
2019-02-24T01:53:44.943Z,4.70
2019-02-24T01:56:30.836Z,4.57
2019-02-24T02:02:26.357Z,5.10
2019-02-24T02:05:05.090Z,4.50
2019-02-24T02:11:11.676Z,4.17
2019-02-24T02:17:23.100Z,4.80
2019-02-24T02:30:12.821Z,4.57
2019-02-24T02:32:52.972Z,5.00
2019-02-24T02:35:37.846Z,4.50
2019-02-24T02:38:16.563Z,4.33
2019-02-24T02:40:52.815Z,4.33
2019-02-24T02:43:28.876Z,4.60
2019-02-24T02:49:48.580Z,4.80
2019-02-24T02:56:06.840Z,4.90
2019-02-24T02:58:53.628Z,4.30
2019-02-24T03:04:52.152Z,4.20
2019-02-24T03:10:47.889Z,4.60
2019-02-24T03:17:06.770Z,4.60
2019-02-24T03:19:43.849Z,4.33
2019-02-24T03:22:22.262Z,4.27
2019-02-24T03:25:00.909Z,4.57
2019-02-24T03:27:37.263Z,4.40
2019-02-24T03:30:13.269Z,5.00
2019-02-24T03:32:53.782Z,4.87
2019-02-24T03:35:38.218Z,4.63
2019-02-24T03:38:17.764Z,4.33
2019-02-24T03:41:02.824Z,4.47
2019-02-24T03:43:38.885Z,3.97
2019-02-24T03:46:15.768Z,4.53
2019-02-24T03:48:52.021Z,4.80
2019-02-24T03:51:29.924Z,4.37
2019-02-24T03:54:07.823Z,5.07
2019-02-24T03:56:46.542Z,4.30
2019-02-24T03:59:23.829Z,4.70
2019-02-24T04:01:59.476Z,3.93
2019-02-24T04:04:36.558Z,4.47
2019-02-24T04:07:12.619Z,4.67
2019-02-24T04:09:51.556Z,4.30
2019-02-24T04:12:28.827Z,4.13
2019-02-24T04:15:07.560Z,4.33
2019-02-24T04:17:49.748Z,4.27
2019-02-24T04:20:28.073Z,4.30
2019-02-24T04:23:10.303Z,4.67
2019-02-24T04:25:46.735Z,4.37
2019-02-24T04:28:24.831Z,5.27
2019-02-24T04:31:02.744Z,4.07
2019-02-24T04:33:38.997Z,4.07
2019-02-24T04:36:16.268Z,4.50
2019-02-24T04:38:52.286Z,4.60
2019-02-24T04:41:41.276Z,4.30
2019-02-24T04:44:16.946Z,4.87
2019-02-24T04:46:53.826Z,4.80
2019-02-24T04:49:29.303Z,4.70
2019-02-24T04:52:04.271Z,4.40
2019-02-24T04:54:48.961Z,4.70
2019-02-24T04:57:27.304Z,4.23
2019-02-24T05:00:05.785Z,4.80
2019-02-24T05:02:44.708Z,4.57
2019-02-24T05:05:24.660Z,4.57
2019-02-24T05:08:03.792Z,4.30
2019-02-24T05:14:17.146Z,4.53
2019-02-24T05:20:38.886Z,4.73
2019-02-24T05:27:00.837Z,4.20
2019-02-24T05:29:45.241Z,4.07
2019-02-24T05:35:43.312Z,4.03
2019-02-24T05:41:59.327Z,4.00
2019-02-24T05:48:20.446Z,4.43
2019-02-24T05:50:57.101Z,4.40
2019-02-24T05:53:35.205Z,4.80
2019-02-24T05:56:12.903Z,3.77
2019-02-24T05:58:51.011Z,4.17
2019-02-24T06:01:28.701Z,4.00
2019-02-24T06:04:05.987Z,4.47
2019-02-24T06:06:42.364Z,3.97
2019-02-24T06:09:18.920Z,3.33
2019-02-24T06:15:12.018Z,4.40
2019-02-24T06:17:48.888Z,4.83
2019-02-24T06:20:24.757Z,5.00
2019-02-24T06:23:01.314Z,4.50
2019-02-24T06:25:38.285Z,4.20
2019-02-24T06:31:31.161Z,4.43
2019-02-24T06:34:07.524Z,4.67
2019-02-24T06:36:42.600Z,4.80
2019-02-24T06:39:19.118Z,4.70
2019-02-24T06:41:57.216Z,5.97
2019-02-24T06:44:34.708Z,4.43
2019-02-24T06:47:11.179Z,4.57
2019-02-24T06:49:49.281Z,5.03
2019-02-24T06:52:38.039Z,4.67
2019-02-24T06:55:15.148Z,4.80
2019-02-24T06:57:51.194Z,4.83
2019-02-24T07:04:00.444Z,5.17
2019-02-24T07:06:38.127Z,4.33
2019-02-24T07:12:55.882Z,4.80
2019-02-24T07:19:11.186Z,4.43
2019-02-24T07:25:27.841Z,5.00
2019-02-24T07:28:11.856Z,5.30
2019-02-24T07:30:49.883Z,5.53
2019-02-24T07:33:27.894Z,4.50
2019-02-24T07:39:56.158Z,5.20
2019-02-24T07:42:31.631Z,5.17
2019-02-24T07:45:13.804Z,4.77
2019-02-24T07:47:50.472Z,4.90
2019-02-24T07:50:34.313Z,5.20
2019-02-24T07:53:26.770Z,5.33
2019-02-24T07:56:04.451Z,5.50
2019-02-24T08:02:19.938Z,5.57
2019-02-24T08:12:33.652Z,5.17
2019-02-24T08:18:32.595Z,6.67
2019-02-24T08:24:47.641Z,4.83
2019-02-24T08:27:30.689Z,5.03
2019-02-24T08:30:12.859Z,5.50
2019-02-24T08:33:00.603Z,5.40
2019-02-24T08:35:42.789Z,5.37
2019-02-24T08:42:22.474Z,5.93
2019-02-24T08:45:03.496Z,5.20
2019-02-24T08:51:24.050Z,5.83
2019-02-24T08:54:10.962Z,5.90
2019-02-24T08:56:55.562Z,5.57
2019-02-24T08:59:42.955Z,5.30
2019-02-24T09:02:24.134Z,5.87
2019-02-24T09:05:05.915Z,6.40
2019-02-24T09:07:53.030Z,6.13
2019-02-24T09:10:36.460Z,5.70
2019-02-24T09:13:15.997Z,5.43
2019-02-24T09:16:01.897Z,6.00
2019-02-24T09:18:47.440Z,5.93
2019-02-24T09:25:08.706Z,5.97
2019-02-24T09:27:50.902Z,6.20
2019-02-24T09:34:04.049Z,6.17
2019-02-24T09:40:23.143Z,5.60
2019-02-24T09:43:08.494Z,6.27
2019-02-24T09:45:46.494Z,6.37
2019-02-24T09:48:30.003Z,5.80
2019-02-24T09:51:09.074Z,6.27
2019-02-24T09:53:47.793Z,6.70
2019-02-24T09:56:30.507Z,7.17
2019-02-24T09:59:13.033Z,6.87
2019-02-24T10:01:57.060Z,7.83
2019-02-24T10:04:35.370Z,7.97
2019-02-24T10:07:12.044Z,8.00
2019-02-24T10:09:52.001Z,7.73
2019-02-24T10:12:36.014Z,7.23
2019-02-24T10:15:16.030Z,7.57
2019-02-24T10:17:55.123Z,6.83
2019-02-24T10:20:41.002Z,7.47
2019-02-24T10:23:23.026Z,7.47
2019-02-24T10:26:09.116Z,7.17
2019-02-24T10:29:01.501Z,7.43
2019-02-24T10:31:49.897Z,7.93
2019-02-24T10:38:15.118Z,6.70
2019-02-24T10:41:14.102Z,7.37
2019-02-24T10:44:16.998Z,7.17
2019-02-24T10:50:11.087Z,6.93
2019-02-24T10:52:52.061Z,6.97
2019-02-24T10:55:37.129Z,6.90
2019-02-24T10:58:22.145Z,7.07
2019-02-24T11:01:07.005Z,7.20
2019-02-24T11:03:41.527Z,7.67
2019-02-24T11:06:24.102Z,8.30
2019-02-24T11:09:13.241Z,7.83
2019-02-24T11:11:41.570Z,7.60
2019-02-24T11:14:25.465Z,7.90
2019-02-24T11:17:26.944Z,8.03
2019-02-24T11:20:31.964Z,7.10
2019-02-24T11:23:18.057Z,7.70
2019-02-24T11:26:00.881Z,8.40
2019-02-24T11:28:42.070Z,6.33
2019-02-24T11:31:38.144Z,8.00
2019-02-24T11:41:52.165Z,7.97
2019-02-24T11:44:39.507Z,8.23
2019-02-24T11:47:23.546Z,7.80
2019-02-24T11:53:39.148Z,7.33
2019-02-24T11:56:33.419Z,8.13
2019-02-24T11:59:13.565Z,8.53
2019-02-24T12:01:51.893Z,8.27
2019-02-24T12:04:43.919Z,8.23
2019-02-24T12:07:24.073Z,8.00
2019-02-24T12:10:07.089Z,8.70
2019-02-24T12:16:22.583Z,7.80
2019-02-24T12:19:07.170Z,8.17
2019-02-24T12:25:15.199Z,7.90
2019-02-24T12:32:03.591Z,8.67
2019-02-24T12:35:12.185Z,8.33
2019-02-24T12:37:56.415Z,9.53
2019-02-24T12:40:39.441Z,9.27
2019-02-24T12:46:44.194Z,8.63
2019-02-24T12:53:13.511Z,8.50
2019-02-24T12:56:05.746Z,8.93
2019-02-24T13:04:43.480Z,8.87
2019-02-24T13:07:45.142Z,8.50
2019-02-24T13:14:01.571Z,8.67
2019-02-24T13:16:51.760Z,7.73
2019-02-24T13:30:00.638Z,8.70
2019-02-24T13:36:47.004Z,8.90
2019-02-24T13:39:58.999Z,9.27
2019-02-24T13:42:34.713Z,9.33
2019-02-24T13:45:26.860Z,8.97
2019-02-24T13:52:00.983Z,10.37
2019-02-24T13:54:50.767Z,9.50
2019-02-24T13:58:00.089Z,10.13
2019-02-24T14:04:22.980Z,9.60
2019-02-24T14:07:11.385Z,9.53
2019-02-24T14:13:40.389Z,10.27
2019-02-24T14:20:15.908Z,10.33
2019-02-24T14:22:56.882Z,10.53
2019-02-24T14:25:46.865Z,10.43
2019-02-24T14:28:37.882Z,10.37
2019-02-24T14:31:40.992Z,10.70
2019-02-24T14:34:33.015Z,10.87
2019-02-24T14:37:21.957Z,10.00
2019-02-24T14:40:04.985Z,10.17
2019-02-24T14:43:01.388Z,10.27
2019-02-24T14:45:49.939Z,10.30
2019-02-24T14:48:40.039Z,12.13
2019-02-24T14:51:39.880Z,10.60
2019-02-24T15:00:21.407Z,11.03
2019-02-24T15:03:05.330Z,10.10
2019-02-24T15:05:55.927Z,11.17
2019-02-24T15:08:46.731Z,11.50
2019-02-24T15:11:45.931Z,11.43
2019-02-24T15:14:26.699Z,11.40
2019-02-24T15:20:44.392Z,11.50
2019-02-24T15:26:58.396Z,11.10
2019-02-24T15:29:53.020Z,11.90
2019-02-24T15:32:51.519Z,11.33
2019-02-24T15:35:45.669Z,10.37
2019-02-24T15:38:37.914Z,10.27
2019-02-24T15:44:52.910Z,10.23
2019-02-24T15:51:27.139Z,10.97
2019-02-24T15:54:10.993Z,11.97
2019-02-24T15:57:12.020Z,11.40
2019-02-24T16:00:38.579Z,12.13
2019-02-24T16:06:57.529Z,10.03
2019-02-24T16:09:37.592Z,8.83
2019-02-24T16:12:20.128Z,9.70
2019-02-24T16:14:59.537Z,10.53
2019-02-24T16:17:40.008Z,9.97
2019-02-24T16:20:42.130Z,9.27
2019-02-24T16:23:31.529Z,9.97
2019-02-24T16:26:31.046Z,11.37
2019-02-24T16:29:15.545Z,11.00
2019-02-24T16:32:02.636Z,10.13
2019-02-24T16:34:45.841Z,12.57
2019-02-24T16:37:28.251Z,13.50
2019-02-24T16:40:11.066Z,11.37
2019-02-24T16:42:53.272Z,10.70
2019-02-24T16:45:32.192Z,12.27
2019-02-24T16:48:16.031Z,11.43
2019-02-24T16:51:02.928Z,10.90
2019-02-24T16:53:43.612Z,10.80
2019-02-24T16:56:24.497Z,11.93
2019-02-24T16:59:03.212Z,11.73
2019-02-24T17:01:45.206Z,9.87
2019-02-24T17:04:36.230Z,10.13
2019-02-24T17:07:22.821Z,9.83
2019-02-24T17:10:13.122Z,10.93
2019-02-24T17:16:33.413Z,12.77
2019-02-24T17:19:18.285Z,10.87
2019-02-24T17:32:07.676Z,13.80
2019-02-24T17:34:53.189Z,13.80
2019-02-24T17:41:40.333Z,9.57
2019-02-24T17:44:22.536Z,9.73
2019-02-24T17:50:37.111Z,15.77
2019-02-24T17:53:24.230Z,11.07
2019-02-24T17:59:43.332Z,9.17
2019-02-24T18:02:26.742Z,11.30
2019-02-24T18:08:46.233Z,9.70
2019-02-24T18:11:31.840Z,8.87
2019-02-24T18:14:13.830Z,8.93
2019-02-24T18:16:57.349Z,9.60
2019-02-24T18:19:48.560Z,8.93
2019-02-24T18:22:31.920Z,8.73
2019-02-24T18:25:13.386Z,8.70
2019-02-24T18:27:59.794Z,9.07
2019-02-24T18:30:38.391Z,8.93
2019-02-24T18:33:24.690Z,8.83
2019-02-24T18:36:15.293Z,9.90
2019-02-24T18:39:10.807Z,12.67
2019-02-24T18:45:43.924Z,12.13
2019-02-24T18:48:31.555Z,13.00
2019-02-24T18:54:49.420Z,15.90
2019-02-24T18:57:25.317Z,16.33
2019-02-24T19:00:05.864Z,18.67
2019-02-24T19:02:42.849Z,13.80
2019-02-24T19:08:31.468Z,16.40
2019-02-24T19:11:10.591Z,8.83
2019-02-24T19:24:21.329Z,14.07
2019-02-24T19:27:00.253Z,12.37
2019-02-24T19:29:40.426Z,19.60
2019-02-24T19:32:18.312Z,15.87
2019-02-24T19:35:02.377Z,9.80
2019-02-24T19:37:43.526Z,8.50
2019-02-24T19:40:27.859Z,8.10
2019-02-24T19:43:09.849Z,7.00
2019-02-24T19:45:49.524Z,6.80
2019-02-24T19:48:29.270Z,6.90
2019-02-24T19:51:05.521Z,7.23
2019-02-24T19:53:43.424Z,7.10
2019-02-24T19:56:27.476Z,7.53
2019-02-24T19:59:05.373Z,8.63
2019-02-24T20:01:49.619Z,7.80
2019-02-24T20:04:27.320Z,9.33
2019-02-24T20:07:05.875Z,8.60
2019-02-24T20:09:44.841Z,8.07
2019-02-24T20:12:22.249Z,7.27
2019-02-24T20:15:09.156Z,7.23
2019-02-24T20:17:47.469Z,7.00
2019-02-24T20:20:27.415Z,6.40
2019-02-24T20:23:08.389Z,6.57
2019-02-24T20:25:58.786Z,7.20
2019-02-24T20:28:36.705Z,6.17
2019-02-24T20:38:18.737Z,6.27
2019-02-24T20:40:57.852Z,5.80
2019-02-24T20:47:07.852Z,6.83
2019-02-24T20:49:45.848Z,6.33
2019-02-24T20:52:32.742Z,6.57
2019-02-24T20:55:11.667Z,6.23
2019-02-24T20:57:52.643Z,7.20
2019-02-24T21:00:49.884Z,7.30
2019-02-24T21:03:27.487Z,7.23
2019-02-24T21:06:07.437Z,5.73
2019-02-24T21:08:50.663Z,5.57
2019-02-24T21:11:36.756Z,5.90
2019-02-24T21:14:19.381Z,6.53
2019-02-24T21:20:47.243Z,6.27
2019-02-24T21:23:40.733Z,7.03
2019-02-24T21:29:35.645Z,7.23
2019-02-24T21:32:20.341Z,6.43
2019-02-24T21:34:57.382Z,6.40
2019-02-24T21:37:35.488Z,6.20
2019-02-24T21:40:12.382Z,5.23
2019-02-24T21:42:55.792Z,5.90
2019-02-24T21:45:41.604Z,7.00
2019-02-24T21:48:22.449Z,5.90
2019-02-24T21:51:03.224Z,6.30
2019-02-24T21:53:44.333Z,5.10
2019-02-24T21:56:37.458Z,6.13
2019-02-24T21:59:17.633Z,5.97
2019-02-24T22:01:55.503Z,6.67
2019-02-24T22:04:35.899Z,7.07
2019-02-24T22:07:18.475Z,7.03
2019-02-24T22:09:58.215Z,6.07
2019-02-24T22:12:40.588Z,6.80
2019-02-24T22:15:20.368Z,5.93
2019-02-24T22:18:03.432Z,6.77
2019-02-24T22:20:39.447Z,6.80
2019-02-24T22:23:18.891Z,7.13
2019-02-24T22:25:57.500Z,6.07
2019-02-24T22:28:43.911Z,6.30
2019-02-24T22:31:25.179Z,6.73
2019-02-24T22:34:03.499Z,7.73
2019-02-24T22:36:46.102Z,5.97
2019-02-24T22:39:27.283Z,5.80
2019-02-24T22:42:07.439Z,5.63
2019-02-24T22:44:48.618Z,5.30
2019-02-24T22:47:25.487Z,6.00
2019-02-24T22:50:02.160Z,5.70
2019-02-24T22:52:41.283Z,5.77
2019-02-24T22:55:20.626Z,5.83
2019-02-24T22:58:03.902Z,5.37
2019-02-24T23:01:03.905Z,6.17
2019-02-24T23:03:47.503Z,5.90
2019-02-24T23:06:27.657Z,5.90
2019-02-24T23:09:18.472Z,6.13
2019-02-24T23:11:58.613Z,6.17
2019-02-24T23:14:39.914Z,5.93
2019-02-24T23:17:15.914Z,6.43
2019-02-24T23:20:01.331Z,5.80
2019-02-24T23:22:42.500Z,6.20
2019-02-24T23:25:20.212Z,6.73
2019-02-24T23:27:57.691Z,5.70
2019-02-24T23:30:37.434Z,5.60
2019-02-24T23:33:14.916Z,5.77
2019-02-24T23:35:52.420Z,5.73
2019-02-24T23:38:29.704Z,5.70
2019-02-24T23:41:12.318Z,5.40
2019-02-24T23:43:51.445Z,5.83
2019-02-24T23:46:27.306Z,5.53
2019-02-24T23:49:06.914Z,5.67
2019-02-24T23:51:49.666Z,5.70
2019-02-24T23:54:31.868Z,6.07
2019-02-24T23:57:13.858Z,5.87
2019-02-24T23:59:51.759Z,5.60
